sensor_id;sensor_type;location;lat;lon;timestamp;P1;durP1;ratioP1;P2;durP2;ratioP2
52574;SDS011;38468;48.114;-1.684;2022-07-21T00:00:59;6.05;;;3.55;;
52574;SDS011;38468;48.114;-1.684;2022-07-21T00:03:00;5.78;;;3.25;;
52574;SDS011;38468;48.114;-1.684;2022-07-21T00:05:07;6.03;;;3.30;;
52574;SDS011;38468;48.114;-1.684;2022-07-21T00:07:08;2.88;;;2.53;;
52574;SDS011;38468;48.114;-1.684;2022-07-21T00:09:09;8.65;;;4.30;;
52574;SDS011;38468;48.114;-1.684;2022-07-21T00:11:11;4.68;;;3.25;;
52574;SDS011;38468;48.114;-1.684;2022-07-21T00:13:12;5.68;;;3.42;;
52574;SDS011;38468;48.114;-1.684;2022-07-21T00:15:14;6.13;;;3.13;;
52574;SDS011;38468;48.114;-1.684;2022-07-21T00:17:18;6.70;;;3.63;;
52574;SDS011;38468;48.114;-1.684;2022-07-21T00:19:26;5.72;;;3.83;;
52574;SDS011;38468;48.114;-1.684;2022-07-21T00:21:27;5.40;;;3.97;;
52574;SDS011;38468;48.114;-1.684;2022-07-21T00:23:28;5.10;;;3.58;;
52574;SDS011;38468;48.114;-1.684;2022-07-21T00:25:29;6.28;;;3.58;;
52574;SDS011;38468;48.114;-1.684;2022-07-21T00:27:30;21.95;;;4.50;;
52574;SDS011;38468;48.114;-1.684;2022-07-21T00:29:31;8.13;;;3.67;;
52574;SDS011;38468;48.114;-1.684;2022-07-21T00:31:32;8.18;;;3.55;;
52574;SDS011;38468;48.114;-1.684;2022-07-21T00:33:32;4.30;;;3.00;;
52574;SDS011;38468;48.114;-1.684;2022-07-21T00:35:33;4.97;;;3.13;;
52574;SDS011;38468;48.114;-1.684;2022-07-21T00:37:34;3.65;;;3.25;;
52574;SDS011;38468;48.114;-1.684;2022-07-21T00:41:36;6.28;;;3.63;;
52574;SDS011;38468;48.114;-1.684;2022-07-21T00:43:37;9.70;;;3.92;;
52574;SDS011;38468;48.114;-1.684;2022-07-21T00:45:40;5.57;;;3.22;;
52574;SDS011;38468;48.114;-1.684;2022-07-21T00:47:45;7.55;;;3.70;;
52574;SDS011;38468;48.114;-1.684;2022-07-21T00:49:53;5.97;;;3.00;;
52574;SDS011;38468;48.114;-1.684;2022-07-21T00:51:54;5.95;;;4.03;;
52574;SDS011;38468;48.114;-1.684;2022-07-21T00:53:55;8.32;;;3.30;;
52574;SDS011;38468;48.114;-1.684;2022-07-21T00:55:56;8.38;;;3.72;;
52574;SDS011;38468;48.114;-1.684;2022-07-21T00:57:58;4.00;;;3.60;;
52574;SDS011;38468;48.114;-1.684;2022-07-21T00:59:58;14.52;;;4.03;;
52574;SDS011;38468;48.114;-1.684;2022-07-21T01:01:59;7.22;;;4.03;;
52574;SDS011;38468;48.114;-1.684;2022-07-21T01:04:00;5.80;;;3.58;;
52574;SDS011;38468;48.114;-1.684;2022-07-21T01:06:00;8.68;;;3.50;;
52574;SDS011;38468;48.114;-1.684;2022-07-21T01:08:02;8.45;;;3.88;;
52574;SDS011;38468;48.114;-1.684;2022-07-21T01:10:03;6.43;;;3.33;;
52574;SDS011;38468;48.114;-1.684;2022-07-21T01:12:04;6.00;;;2.90;;
52574;SDS011;38468;48.114;-1.684;2022-07-21T01:14:05;8.37;;;3.77;;
52574;SDS011;38468;48.114;-1.684;2022-07-21T01:16:10;3.97;;;3.17;;
52574;SDS011;38468;48.114;-1.684;2022-07-21T01:18:10;7.05;;;2.97;;
52574;SDS011;38468;48.114;-1.684;2022-07-21T01:20:13;6.07;;;3.85;;
52574;SDS011;38468;48.114;-1.684;2022-07-21T01:22:16;5.07;;;3.70;;
52574;SDS011;38468;48.114;-1.684;2022-07-21T01:24:16;6.70;;;4.03;;
52574;SDS011;38468;48.114;-1.684;2022-07-21T01:26:17;8.95;;;4.18;;
52574;SDS011;38468;48.114;-1.684;2022-07-21T01:28:18;6.40;;;3.10;;
52574;SDS011;38468;48.114;-1.684;2022-07-21T01:30:18;4.90;;;3.40;;
52574;SDS011;38468;48.114;-1.684;2022-07-21T01:32:19;5.80;;;3.63;;
52574;SDS011;38468;48.114;-1.684;2022-07-21T01:34:20;8.43;;;3.78;;
52574;SDS011;38468;48.114;-1.684;2022-07-21T01:36:21;7.70;;;4.82;;
52574;SDS011;38468;48.114;-1.684;2022-07-21T01:38:21;5.53;;;3.50;;
52574;SDS011;38468;48.114;-1.684;2022-07-21T01:40:41;5.90;;;3.45;;
52574;SDS011;38468;48.114;-1.684;2022-07-21T01:43:00;8.82;;;4.95;;
52574;SDS011;38468;48.114;-1.684;2022-07-21T01:45:01;5.43;;;3.60;;
52574;SDS011;38468;48.114;-1.684;2022-07-21T01:47:03;8.30;;;3.60;;
52574;SDS011;38468;48.114;-1.684;2022-07-21T01:49:04;7.25;;;3.97;;
52574;SDS011;38468;48.114;-1.684;2022-07-21T01:51:05;9.15;;;3.97;;
52574;SDS011;38468;48.114;-1.684;2022-07-21T01:53:05;6.22;;;3.40;;
52574;SDS011;38468;48.114;-1.684;2022-07-21T01:55:06;6.40;;;3.63;;
52574;SDS011;38468;48.114;-1.684;2022-07-21T01:57:07;7.30;;;4.15;;
52574;SDS011;38468;48.114;-1.684;2022-07-21T01:59:08;5.18;;;3.67;;
52574;SDS011;38468;48.114;-1.684;2022-07-21T02:01:09;6.70;;;3.65;;
52574;SDS011;38468;48.114;-1.684;2022-07-21T02:03:09;8.05;;;3.92;;
52574;SDS011;38468;48.114;-1.684;2022-07-21T02:05:10;3.78;;;3.05;;
52574;SDS011;38468;48.114;-1.684;2022-07-21T02:07:11;5.30;;;3.90;;
52574;SDS011;38468;48.114;-1.684;2022-07-21T02:09:11;8.30;;;4.13;;
52574;SDS011;38468;48.114;-1.684;2022-07-21T02:11:12;4.72;;;3.22;;
52574;SDS011;38468;48.114;-1.684;2022-07-21T02:15:14;7.97;;;3.83;;
52574;SDS011;38468;48.114;-1.684;2022-07-21T02:17:15;7.55;;;3.75;;
52574;SDS011;38468;48.114;-1.684;2022-07-21T02:19:16;5.75;;;3.28;;
52574;SDS011;38468;48.114;-1.684;2022-07-21T02:21:17;7.97;;;4.40;;
52574;SDS011;38468;48.114;-1.684;2022-07-21T02:23:17;7.40;;;4.22;;
52574;SDS011;38468;48.114;-1.684;2022-07-21T02:25:18;7.03;;;4.22;;
52574;SDS011;38468;48.114;-1.684;2022-07-21T02:27:20;7.30;;;4.22;;
52574;SDS011;38468;48.114;-1.684;2022-07-21T02:29:21;5.07;;;3.97;;
52574;SDS011;38468;48.114;-1.684;2022-07-21T02:31:21;6.18;;;3.92;;
52574;SDS011;38468;48.114;-1.684;2022-07-21T02:33:22;7.60;;;4.00;;
52574;SDS011;38468;48.114;-1.684;2022-07-21T02:35:23;9.48;;;3.97;;
52574;SDS011;38468;48.114;-1.684;2022-07-21T02:37:23;6.13;;;3.40;;
52574;SDS011;38468;48.114;-1.684;2022-07-21T02:39:24;11.02;;;3.70;;
52574;SDS011;38468;48.114;-1.684;2022-07-21T02:41:26;8.00;;;4.10;;
52574;SDS011;38468;48.114;-1.684;2022-07-21T02:43:26;6.85;;;4.00;;
52574;SDS011;38468;48.114;-1.684;2022-07-21T02:45:27;5.75;;;4.13;;
52574;SDS011;38468;48.114;-1.684;2022-07-21T02:47:28;8.13;;;5.07;;
52574;SDS011;38468;48.114;-1.684;2022-07-21T02:49:28;7.90;;;3.80;;
52574;SDS011;38468;48.114;-1.684;2022-07-21T02:51:29;7.30;;;4.07;;
52574;SDS011;38468;48.114;-1.684;2022-07-21T02:53:30;6.70;;;3.88;;
52574;SDS011;38468;48.114;-1.684;2022-07-21T02:55:30;8.60;;;3.92;;
52574;SDS011;38468;48.114;-1.684;2022-07-21T02:57:31;9.30;;;4.07;;
52574;SDS011;38468;48.114;-1.684;2022-07-21T02:59:32;5.82;;;3.97;;
52574;SDS011;38468;48.114;-1.684;2022-07-21T03:01:32;5.03;;;3.88;;
52574;SDS011;38468;48.114;-1.684;2022-07-21T03:03:34;4.38;;;3.97;;
52574;SDS011;38468;48.114;-1.684;2022-07-21T03:05:36;8.98;;;3.67;;
52574;SDS011;38468;48.114;-1.684;2022-07-21T03:07:37;6.75;;;4.30;;
52574;SDS011;38468;48.114;-1.684;2022-07-21T03:09:38;5.07;;;3.65;;
52574;SDS011;38468;48.114;-1.684;2022-07-21T03:11:38;7.50;;;3.45;;
52574;SDS011;38468;48.114;-1.684;2022-07-21T03:13:39;8.55;;;3.90;;
52574;SDS011;38468;48.114;-1.684;2022-07-21T03:15:40;6.68;;;3.60;;
52574;SDS011;38468;48.114;-1.684;2022-07-21T03:17:40;6.18;;;4.20;;
52574;SDS011;38468;48.114;-1.684;2022-07-21T03:19:41;9.98;;;4.85;;
52574;SDS011;38468;48.114;-1.684;2022-07-21T03:21:42;9.05;;;4.28;;
52574;SDS011;38468;48.114;-1.684;2022-07-21T03:23:42;8.70;;;4.18;;
52574;SDS011;38468;48.114;-1.684;2022-07-21T03:25:45;9.38;;;4.72;;
52574;SDS011;38468;48.114;-1.684;2022-07-21T03:27:46;8.93;;;4.03;;
52574;SDS011;38468;48.114;-1.684;2022-07-21T03:29:48;6.13;;;4.43;;
52574;SDS011;38468;48.114;-1.684;2022-07-21T03:31:48;7.47;;;3.95;;
52574;SDS011;38468;48.114;-1.684;2022-07-21T03:33:49;6.10;;;4.35;;
52574;SDS011;38468;48.114;-1.684;2022-07-21T03:35:50;7.72;;;4.65;;
52574;SDS011;38468;48.114;-1.684;2022-07-21T03:37:52;8.48;;;3.58;;
52574;SDS011;38468;48.114;-1.684;2022-07-21T03:39:57;16.75;;;4.63;;
52574;SDS011;38468;48.114;-1.684;2022-07-21T03:41:58;6.85;;;4.00;;
52574;SDS011;38468;48.114;-1.684;2022-07-21T03:43:59;7.57;;;4.65;;
52574;SDS011;38468;48.114;-1.684;2022-07-21T03:45:59;8.80;;;4.93;;
52574;SDS011;38468;48.114;-1.684;2022-07-21T03:48:01;5.28;;;4.05;;
52574;SDS011;38468;48.114;-1.684;2022-07-21T03:50:04;6.07;;;4.93;;
52574;SDS011;38468;48.114;-1.684;2022-07-21T03:52:05;5.88;;;4.00;;
52574;SDS011;38468;48.114;-1.684;2022-07-21T03:54:06;10.65;;;5.40;;
52574;SDS011;38468;48.114;-1.684;2022-07-21T03:56:07;6.90;;;4.43;;
52574;SDS011;38468;48.114;-1.684;2022-07-21T03:58:08;7.80;;;4.63;;
52574;SDS011;38468;48.114;-1.684;2022-07-21T04:00:10;5.78;;;4.15;;
52574;SDS011;38468;48.114;-1.684;2022-07-21T04:02:12;7.45;;;4.35;;
52574;SDS011;38468;48.114;-1.684;2022-07-21T04:04:13;8.48;;;5.22;;
52574;SDS011;38468;48.114;-1.684;2022-07-21T04:06:14;7.05;;;4.50;;
52574;SDS011;38468;48.114;-1.684;2022-07-21T04:08:14;5.53;;;4.75;;
52574;SDS011;38468;48.114;-1.684;2022-07-21T04:10:16;7.53;;;4.68;;
52574;SDS011;38468;48.114;-1.684;2022-07-21T04:12:19;6.40;;;4.95;;
52574;SDS011;38468;48.114;-1.684;2022-07-21T04:14:24;10.77;;;4.97;;
52574;SDS011;38468;48.114;-1.684;2022-07-21T04:16:24;7.55;;;4.70;;
52574;SDS011;38468;48.114;-1.684;2022-07-21T04:18:25;6.05;;;4.03;;
52574;SDS011;38468;48.114;-1.684;2022-07-21T04:20:26;5.63;;;4.35;;
52574;SDS011;38468;48.114;-1.684;2022-07-21T04:22:26;8.15;;;5.03;;
52574;SDS011;38468;48.114;-1.684;2022-07-21T04:24:27;7.47;;;4.32;;
52574;SDS011;38468;48.114;-1.684;2022-07-21T04:26:28;6.55;;;4.28;;
52574;SDS011;38468;48.114;-1.684;2022-07-21T04:28:29;6.70;;;4.85;;
52574;SDS011;38468;48.114;-1.684;2022-07-21T04:30:30;7.43;;;4.63;;
52574;SDS011;38468;48.114;-1.684;2022-07-21T04:32:30;7.50;;;4.60;;
52574;SDS011;38468;48.114;-1.684;2022-07-21T04:34:31;5.40;;;4.25;;
52574;SDS011;38468;48.114;-1.684;2022-07-21T04:36:33;7.07;;;4.75;;
52574;SDS011;38468;48.114;-1.684;2022-07-21T04:38:34;10.07;;;4.27;;
52574;SDS011;38468;48.114;-1.684;2022-07-21T04:40:35;5.47;;;4.50;;
52574;SDS011;38468;48.114;-1.684;2022-07-21T04:42:36;8.77;;;4.60;;
52574;SDS011;38468;48.114;-1.684;2022-07-21T04:44:37;5.57;;;4.43;;
52574;SDS011;38468;48.114;-1.684;2022-07-21T04:46:38;7.35;;;4.95;;
52574;SDS011;38468;48.114;-1.684;2022-07-21T04:48:38;7.57;;;4.68;;
52574;SDS011;38468;48.114;-1.684;2022-07-21T04:50:39;6.47;;;3.88;;
52574;SDS011;38468;48.114;-1.684;2022-07-21T04:52:40;7.50;;;4.35;;
52574;SDS011;38468;48.114;-1.684;2022-07-21T04:54:41;9.85;;;5.05;;
52574;SDS011;38468;48.114;-1.684;2022-07-21T04:56:41;19.55;;;5.95;;
52574;SDS011;38468;48.114;-1.684;2022-07-21T04:58:43;10.20;;;5.05;;
52574;SDS011;38468;48.114;-1.684;2022-07-21T05:00:44;10.93;;;5.97;;
52574;SDS011;38468;48.114;-1.684;2022-07-21T05:02:45;13.15;;;5.28;;
52574;SDS011;38468;48.114;-1.684;2022-07-21T05:04:46;14.75;;;6.30;;
52574;SDS011;38468;48.114;-1.684;2022-07-21T05:06:47;13.52;;;5.60;;
52574;SDS011;38468;48.114;-1.684;2022-07-21T05:08:47;9.90;;;5.47;;
52574;SDS011;38468;48.114;-1.684;2022-07-21T05:10:48;11.55;;;5.47;;
52574;SDS011;38468;48.114;-1.684;2022-07-21T05:12:49;12.20;;;5.35;;
52574;SDS011;38468;48.114;-1.684;2022-07-21T05:14:49;7.57;;;5.40;;
52574;SDS011;38468;48.114;-1.684;2022-07-21T05:16:50;7.28;;;5.30;;
52574;SDS011;38468;48.114;-1.684;2022-07-21T05:18:50;11.43;;;5.80;;
52574;SDS011;38468;48.114;-1.684;2022-07-21T05:20:51;9.07;;;5.38;;
52574;SDS011;38468;48.114;-1.684;2022-07-21T05:22:52;7.00;;;4.95;;
52574;SDS011;38468;48.114;-1.684;2022-07-21T05:24:53;9.50;;;5.50;;
52574;SDS011;38468;48.114;-1.684;2022-07-21T05:26:53;9.30;;;5.28;;
52574;SDS011;38468;48.114;-1.684;2022-07-21T05:28:54;7.25;;;5.43;;
52574;SDS011;38468;48.114;-1.684;2022-07-21T05:30:55;12.90;;;7.55;;
52574;SDS011;38468;48.114;-1.684;2022-07-21T05:32:56;13.48;;;7.03;;
52574;SDS011;38468;48.114;-1.684;2022-07-21T05:34:56;8.80;;;5.97;;
52574;SDS011;38468;48.114;-1.684;2022-07-21T05:36:57;10.77;;;5.95;;
52574;SDS011;38468;48.114;-1.684;2022-07-21T05:38:57;11.32;;;4.90;;
52574;SDS011;38468;48.114;-1.684;2022-07-21T05:40:58;8.27;;;5.90;;
52574;SDS011;38468;48.114;-1.684;2022-07-21T05:43:05;9.43;;;5.93;;
52574;SDS011;38468;48.114;-1.684;2022-07-21T05:45:06;10.23;;;4.90;;
52574;SDS011;38468;48.114;-1.684;2022-07-21T05:47:07;10.20;;;6.17;;
52574;SDS011;38468;48.114;-1.684;2022-07-21T05:49:08;8.25;;;5.95;;
52574;SDS011;38468;48.114;-1.684;2022-07-21T05:51:08;7.88;;;5.05;;
52574;SDS011;38468;48.114;-1.684;2022-07-21T05:53:09;8.15;;;5.68;;
52574;SDS011;38468;48.114;-1.684;2022-07-21T05:55:10;10.68;;;6.38;;
52574;SDS011;38468;48.114;-1.684;2022-07-21T05:57:12;11.55;;;4.55;;
52574;SDS011;38468;48.114;-1.684;2022-07-21T05:59:13;12.10;;;6.18;;
52574;SDS011;38468;48.114;-1.684;2022-07-21T06:01:13;13.57;;;5.25;;
52574;SDS011;38468;48.114;-1.684;2022-07-21T06:03:16;8.82;;;5.22;;
52574;SDS011;38468;48.114;-1.684;2022-07-21T06:05:17;10.70;;;6.28;;
52574;SDS011;38468;48.114;-1.684;2022-07-21T06:07:17;6.05;;;4.72;;
52574;SDS011;38468;48.114;-1.684;2022-07-21T06:09:18;9.20;;;5.07;;
52574;SDS011;38468;48.114;-1.684;2022-07-21T06:11:20;14.98;;;6.13;;
52574;SDS011;38468;48.114;-1.684;2022-07-21T06:13:21;9.87;;;5.00;;
52574;SDS011;38468;48.114;-1.684;2022-07-21T06:15:22;10.23;;;4.47;;
52574;SDS011;38468;48.114;-1.684;2022-07-21T06:17:22;7.20;;;4.65;;
52574;SDS011;38468;48.114;-1.684;2022-07-21T06:19:23;13.65;;;8.07;;
52574;SDS011;38468;48.114;-1.684;2022-07-21T06:21:24;7.55;;;5.35;;
52574;SDS011;38468;48.114;-1.684;2022-07-21T06:23:25;8.25;;;5.45;;
52574;SDS011;38468;48.114;-1.684;2022-07-21T06:25:26;7.90;;;5.15;;
52574;SDS011;38468;48.114;-1.684;2022-07-21T06:27:26;11.05;;;4.85;;
52574;SDS011;38468;48.114;-1.684;2022-07-21T06:29:28;9.90;;;4.95;;
52574;SDS011;38468;48.114;-1.684;2022-07-21T06:31:29;10.95;;;5.43;;
52574;SDS011;38468;48.114;-1.684;2022-07-21T06:33:30;10.38;;;4.95;;
52574;SDS011;38468;48.114;-1.684;2022-07-21T06:35:30;9.23;;;4.90;;
52574;SDS011;38468;48.114;-1.684;2022-07-21T06:37:31;11.25;;;4.57;;
52574;SDS011;38468;48.114;-1.684;2022-07-21T06:39:32;7.97;;;4.15;;
52574;SDS011;38468;48.114;-1.684;2022-07-21T06:41:33;12.38;;;4.68;;
52574;SDS011;38468;48.114;-1.684;2022-07-21T06:43:34;13.90;;;4.97;;
52574;SDS011;38468;48.114;-1.684;2022-07-21T06:45:34;15.70;;;5.38;;
52574;SDS011;38468;48.114;-1.684;2022-07-21T06:47:35;10.15;;;5.15;;
52574;SDS011;38468;48.114;-1.684;2022-07-21T06:49:36;8.68;;;4.95;;
52574;SDS011;38468;48.114;-1.684;2022-07-21T06:51:36;11.85;;;4.68;;
52574;SDS011;38468;48.114;-1.684;2022-07-21T06:53:37;7.10;;;4.38;;
52574;SDS011;38468;48.114;-1.684;2022-07-21T06:55:38;11.55;;;4.70;;
52574;SDS011;38468;48.114;-1.684;2022-07-21T06:57:38;6.13;;;4.10;;
52574;SDS011;38468;48.114;-1.684;2022-07-21T06:59:39;7.95;;;4.35;;
52574;SDS011;38468;48.114;-1.684;2022-07-21T07:01:40;9.02;;;3.67;;
52574;SDS011;38468;48.114;-1.684;2022-07-21T07:03:40;7.32;;;4.18;;
52574;SDS011;38468;48.114;-1.684;2022-07-21T07:05:42;13.95;;;5.38;;
52574;SDS011;38468;48.114;-1.684;2022-07-21T07:07:44;12.20;;;4.57;;
52574;SDS011;38468;48.114;-1.684;2022-07-21T07:09:45;7.47;;;4.55;;
52574;SDS011;38468;48.114;-1.684;2022-07-21T07:11:45;9.63;;;4.88;;
52574;SDS011;38468;48.114;-1.684;2022-07-21T07:13:46;12.13;;;4.47;;
52574;SDS011;38468;48.114;-1.684;2022-07-21T07:15:47;8.32;;;3.45;;
52574;SDS011;38468;48.114;-1.684;2022-07-21T07:17:48;10.98;;;3.60;;
52574;SDS011;38468;48.114;-1.684;2022-07-21T07:19:49;6.27;;;3.73;;
52574;SDS011;38468;48.114;-1.684;2022-07-21T07:21:50;8.82;;;3.97;;
52574;SDS011;38468;48.114;-1.684;2022-07-21T07:23:50;9.07;;;4.18;;
52574;SDS011;38468;48.114;-1.684;2022-07-21T07:25:51;6.18;;;3.15;;
52574;SDS011;38468;48.114;-1.684;2022-07-21T07:27:52;5.40;;;3.42;;
52574;SDS011;38468;48.114;-1.684;2022-07-21T07:29:55;7.05;;;3.67;;
52574;SDS011;38468;48.114;-1.684;2022-07-21T07:31:55;7.90;;;3.97;;
52574;SDS011;38468;48.114;-1.684;2022-07-21T07:33:56;13.80;;;4.97;;
52574;SDS011;38468;48.114;-1.684;2022-07-21T07:35:58;6.88;;;3.85;;
52574;SDS011;38468;48.114;-1.684;2022-07-21T07:40:00;6.25;;;3.72;;
52574;SDS011;38468;48.114;-1.684;2022-07-21T07:42:01;11.60;;;5.28;;
52574;SDS011;38468;48.114;-1.684;2022-07-21T07:44:01;8.75;;;4.20;;
52574;SDS011;38468;48.114;-1.684;2022-07-21T07:46:03;5.60;;;3.80;;
52574;SDS011;38468;48.114;-1.684;2022-07-21T07:50:06;8.25;;;6.72;;
52574;SDS011;38468;48.114;-1.684;2022-07-21T07:52:09;8.75;;;4.43;;
52574;SDS011;38468;48.114;-1.684;2022-07-21T07:54:10;7.88;;;4.55;;
52574;SDS011;38468;48.114;-1.684;2022-07-21T07:56:11;11.25;;;4.55;;
52574;SDS011;38468;48.114;-1.684;2022-07-21T07:58:11;9.57;;;4.03;;
52574;SDS011;38468;48.114;-1.684;2022-07-21T08:00:13;4.53;;;3.55;;
52574;SDS011;38468;48.114;-1.684;2022-07-21T08:02:16;5.72;;;3.70;;
52574;SDS011;38468;48.114;-1.684;2022-07-21T08:04:16;4.45;;;3.80;;
52574;SDS011;38468;48.114;-1.684;2022-07-21T08:06:22;4.22;;;3.72;;
52574;SDS011;38468;48.114;-1.684;2022-07-21T08:08:23;6.68;;;4.00;;
52574;SDS011;38468;48.114;-1.684;2022-07-21T08:10:24;5.60;;;4.10;;
52574;SDS011;38468;48.114;-1.684;2022-07-21T08:12:25;11.05;;;3.33;;
52574;SDS011;38468;48.114;-1.684;2022-07-21T08:14:25;7.70;;;3.90;;
52574;SDS011;38468;48.114;-1.684;2022-07-21T08:16:26;9.32;;;4.32;;
52574;SDS011;38468;48.114;-1.684;2022-07-21T08:18:27;6.03;;;3.40;;
52574;SDS011;38468;48.114;-1.684;2022-07-21T08:20:28;6.05;;;4.03;;
52574;SDS011;38468;48.114;-1.684;2022-07-21T08:22:29;6.95;;;4.10;;
52574;SDS011;38468;48.114;-1.684;2022-07-21T08:24:29;8.60;;;4.05;;
52574;SDS011;38468;48.114;-1.684;2022-07-21T08:26:30;5.40;;;3.47;;
52574;SDS011;38468;48.114;-1.684;2022-07-21T08:28:31;4.78;;;3.47;;
52574;SDS011;38468;48.114;-1.684;2022-07-21T08:30:32;4.13;;;3.17;;
52574;SDS011;38468;48.114;-1.684;2022-07-21T08:32:32;5.30;;;3.63;;
52574;SDS011;38468;48.114;-1.684;2022-07-21T08:34:33;5.15;;;3.33;;
52574;SDS011;38468;48.114;-1.684;2022-07-21T08:36:34;5.57;;;3.67;;
52574;SDS011;38468;48.114;-1.684;2022-07-21T08:38:34;8.45;;;4.35;;
52574;SDS011;38468;48.114;-1.684;2022-07-21T08:40:36;5.68;;;3.33;;
52574;SDS011;38468;48.114;-1.684;2022-07-21T08:42:40;5.65;;;3.15;;
52574;SDS011;38468;48.114;-1.684;2022-07-21T08:44:42;3.58;;;3.28;;
52574;SDS011;38468;48.114;-1.684;2022-07-21T08:46:43;7.22;;;3.58;;
52574;SDS011;38468;48.114;-1.684;2022-07-21T08:48:50;5.30;;;3.63;;
52574;SDS011;38468;48.114;-1.684;2022-07-21T08:50:51;5.33;;;3.90;;
52574;SDS011;38468;48.114;-1.684;2022-07-21T08:52:52;8.63;;;4.10;;
52574;SDS011;38468;48.114;-1.684;2022-07-21T08:54:52;8.70;;;4.53;;
52574;SDS011;38468;48.114;-1.684;2022-07-21T08:56:55;8.60;;;3.60;;
52574;SDS011;38468;48.114;-1.684;2022-07-21T08:58:56;10.88;;;4.93;;
52574;SDS011;38468;48.114;-1.684;2022-07-21T09:00:57;10.07;;;5.60;;
52574;SDS011;38468;48.114;-1.684;2022-07-21T09:05:32;7.20;;;4.15;;
52574;SDS011;38468;48.114;-1.684;2022-07-21T09:07:49;5.32;;;3.53;;
52574;SDS011;38468;48.114;-1.684;2022-07-21T09:10:09;5.95;;;3.88;;
52574;SDS011;38468;48.114;-1.684;2022-07-21T09:12:09;7.70;;;4.57;;
52574;SDS011;38468;48.114;-1.684;2022-07-21T09:14:14;5.70;;;3.30;;
52574;SDS011;38468;48.114;-1.684;2022-07-21T09:16:35;5.95;;;3.85;;
52574;SDS011;38468;48.114;-1.684;2022-07-21T09:18:47;8.23;;;3.75;;
52574;SDS011;38468;48.114;-1.684;2022-07-21T09:20:51;4.13;;;3.55;;
52574;SDS011;38468;48.114;-1.684;2022-07-21T09:23:10;5.88;;;3.25;;
52574;SDS011;38468;48.114;-1.684;2022-07-21T09:25:12;7.55;;;2.90;;
52574;SDS011;38468;48.114;-1.684;2022-07-21T09:27:40;5.05;;;3.17;;
52574;SDS011;38468;48.114;-1.684;2022-07-21T09:29:50;7.05;;;3.33;;
52574;SDS011;38468;48.114;-1.684;2022-07-21T09:31:53;6.95;;;3.53;;
52574;SDS011;38468;48.114;-1.684;2022-07-21T09:33:53;18.02;;;10.15;;
52574;SDS011;38468;48.114;-1.684;2022-07-21T09:36:08;18.00;;;13.45;;
52574;SDS011;38468;48.114;-1.684;2022-07-21T09:38:12;17.42;;;12.00;;
52574;SDS011;38468;48.114;-1.684;2022-07-21T09:40:13;4.22;;;3.90;;
52574;SDS011;38468;48.114;-1.684;2022-07-21T09:42:16;5.63;;;3.60;;
52574;SDS011;38468;48.114;-1.684;2022-07-21T09:44:31;4.22;;;2.40;;
52574;SDS011;38468;48.114;-1.684;2022-07-21T09:46:32;4.28;;;2.60;;
52574;SDS011;38468;48.114;-1.684;2022-07-21T09:48:37;4.38;;;3.00;;
52574;SDS011;38468;48.114;-1.684;2022-07-21T09:50:39;4.03;;;2.92;;
52574;SDS011;38468;48.114;-1.684;2022-07-21T09:52:41;6.95;;;3.28;;
52574;SDS011;38468;48.114;-1.684;2022-07-21T09:54:45;6.32;;;2.60;;
52574;SDS011;38468;48.114;-1.684;2022-07-21T09:56:46;10.18;;;7.63;;
52574;SDS011;38468;48.114;-1.684;2022-07-21T09:58:48;15.05;;;9.77;;
52574;SDS011;38468;48.114;-1.684;2022-07-21T10:00:51;12.38;;;7.10;;
52574;SDS011;38468;48.114;-1.684;2022-07-21T10:02:53;13.05;;;7.43;;
52574;SDS011;38468;48.114;-1.684;2022-07-21T10:04:59;6.30;;;4.20;;
52574;SDS011;38468;48.114;-1.684;2022-07-21T10:07:06;7.68;;;2.90;;
52574;SDS011;38468;48.114;-1.684;2022-07-21T10:09:07;4.53;;;2.47;;
52574;SDS011;38468;48.114;-1.684;2022-07-21T10:11:09;4.53;;;2.60;;
52574;SDS011;38468;48.114;-1.684;2022-07-21T10:13:10;4.32;;;2.33;;
52574;SDS011;38468;48.114;-1.684;2022-07-21T10:15:11;3.15;;;2.85;;
52574;SDS011;38468;48.114;-1.684;2022-07-21T10:17:12;12.13;;;6.85;;
52574;SDS011;38468;48.114;-1.684;2022-07-21T10:19:15;4.03;;;3.30;;
52574;SDS011;38468;48.114;-1.684;2022-07-21T10:23:46;5.90;;;3.35;;
52574;SDS011;38468;48.114;-1.684;2022-07-21T10:25:50;6.22;;;4.07;;
52574;SDS011;38468;48.114;-1.684;2022-07-21T10:28:33;5.72;;;3.35;;
52574;SDS011;38468;48.114;-1.684;2022-07-21T10:30:32;6.43;;;4.10;;
52574;SDS011;38468;48.114;-1.684;2022-07-21T10:32:49;6.65;;;2.90;;
52574;SDS011;38468;48.114;-1.684;2022-07-21T10:34:51;6.43;;;2.88;;
52574;SDS011;38468;48.114;-1.684;2022-07-21T10:36:52;3.27;;;2.83;;
52574;SDS011;38468;48.114;-1.684;2022-07-21T10:41:35;4.32;;;2.58;;
52574;SDS011;38468;48.114;-1.684;2022-07-21T10:43:38;2.70;;;2.35;;
52574;SDS011;38468;48.114;-1.684;2022-07-21T10:45:41;4.78;;;2.58;;
52574;SDS011;38468;48.114;-1.684;2022-07-21T10:47:45;5.78;;;2.90;;
52574;SDS011;38468;48.114;-1.684;2022-07-21T10:49:47;3.08;;;2.22;;
52574;SDS011;38468;48.114;-1.684;2022-07-21T10:52:04;2.38;;;2.17;;
52574;SDS011;38468;48.114;-1.684;2022-07-21T10:54:18;5.50;;;3.05;;
52574;SDS011;38468;48.114;-1.684;2022-07-21T10:56:29;4.32;;;2.95;;
52574;SDS011;38468;48.114;-1.684;2022-07-21T10:58:38;3.25;;;2.08;;
52574;SDS011;38468;48.114;-1.684;2022-07-21T11:01:01;4.78;;;2.30;;
52574;SDS011;38468;48.114;-1.684;2022-07-21T11:04:06;3.95;;;2.40;;
52574;SDS011;38468;48.114;-1.684;2022-07-21T11:08:18;2.27;;;2.07;;
52574;SDS011;38468;48.114;-1.684;2022-07-21T11:10:22;3.42;;;3.00;;
52574;SDS011;38468;48.114;-1.684;2022-07-21T11:12:53;2.90;;;2.70;;
52574;SDS011;38468;48.114;-1.684;2022-07-21T11:14:54;6.22;;;2.40;;
52574;SDS011;38468;48.114;-1.684;2022-07-21T11:23:10;3.97;;;2.40;;
52574;SDS011;38468;48.114;-1.684;2022-07-21T11:25:10;3.03;;;2.53;;
52574;SDS011;38468;48.114;-1.684;2022-07-21T11:27:17;2.45;;;2.25;;
52574;SDS011;38468;48.114;-1.684;2022-07-21T11:29:19;2.15;;;1.95;;
52574;SDS011;38468;48.114;-1.684;2022-07-21T11:31:20;2.80;;;2.20;;
52574;SDS011;38468;48.114;-1.684;2022-07-21T11:33:22;4.90;;;2.33;;
52574;SDS011;38468;48.114;-1.684;2022-07-21T11:35:22;5.75;;;3.00;;
52574;SDS011;38468;48.114;-1.684;2022-07-21T11:39:37;2.92;;;1.90;;
52574;SDS011;38468;48.114;-1.684;2022-07-21T11:41:39;3.20;;;2.10;;
52574;SDS011;38468;48.114;-1.684;2022-07-21T11:43:41;4.95;;;2.28;;
52574;SDS011;38468;48.114;-1.684;2022-07-21T11:45:52;3.80;;;2.22;;
52574;SDS011;38468;48.114;-1.684;2022-07-21T11:47:53;4.30;;;2.10;;
52574;SDS011;38468;48.114;-1.684;2022-07-21T11:49:55;5.17;;;2.60;;
52574;SDS011;38468;48.114;-1.684;2022-07-21T11:51:59;2.97;;;2.38;;
52574;SDS011;38468;48.114;-1.684;2022-07-21T11:54:02;4.00;;;2.38;;
52574;SDS011;38468;48.114;-1.684;2022-07-21T11:56:12;3.47;;;2.30;;
52574;SDS011;38468;48.114;-1.684;2022-07-21T11:58:14;3.72;;;2.55;;
52574;SDS011;38468;48.114;-1.684;2022-07-21T12:00:15;2.95;;;2.50;;
52574;SDS011;38468;48.114;-1.684;2022-07-21T12:02:20;3.87;;;2.73;;
52574;SDS011;38468;48.114;-1.684;2022-07-21T12:06:39;3.92;;;2.50;;
52574;SDS011;38468;48.114;-1.684;2022-07-21T12:08:41;10.20;;;9.17;;
52574;SDS011;38468;48.114;-1.684;2022-07-21T12:10:42;8.32;;;3.78;;
52574;SDS011;38468;48.114;-1.684;2022-07-21T12:12:44;4.83;;;2.43;;
52574;SDS011;38468;48.114;-1.684;2022-07-21T12:14:49;3.28;;;2.50;;
52574;SDS011;38468;48.114;-1.684;2022-07-21T12:16:51;3.53;;;2.00;;
52574;SDS011;38468;48.114;-1.684;2022-07-21T12:19:09;5.60;;;2.15;;
52574;SDS011;38468;48.114;-1.684;2022-07-21T12:21:11;4.40;;;2.30;;
52574;SDS011;38468;48.114;-1.684;2022-07-21T12:23:22;4.30;;;2.43;;
52574;SDS011;38468;48.114;-1.684;2022-07-21T12:25:35;3.85;;;2.45;;
52574;SDS011;38468;48.114;-1.684;2022-07-21T12:27:40;4.22;;;2.03;;
52574;SDS011;38468;48.114;-1.684;2022-07-21T12:29:42;2.63;;;2.20;;
52574;SDS011;38468;48.114;-1.684;2022-07-21T12:31:43;2.13;;;1.93;;
52574;SDS011;38468;48.114;-1.684;2022-07-21T12:33:43;3.27;;;1.77;;
52574;SDS011;38468;48.114;-1.684;2022-07-21T12:35:45;2.13;;;1.93;;